sensor_id;sensor_type;location;lat;lon;timestamp;pressure;altitude;pressure_sealevel;temperature;humidity
78343;BME280;67618;52.444;21.192;2023-03-16T00:01:06;100655.36;;;0.90;69.91
78343;BME280;67618;52.444;21.192;2023-03-16T00:06:08;100651.95;;;0.91;69.94
78343;BME280;67618;52.444;21.192;2023-03-16T00:11:10;100651.08;;;0.90;69.92
78343;BME280;67618;52.444;21.192;2023-03-16T00:16:12;100658.31;;;0.87;69.83
78343;BME280;67618;52.444;21.192;2023-03-16T00:21:17;100660.73;;;0.82;69.82
78343;BME280;67618;52.444;21.192;2023-03-16T00:26:18;100665.43;;;0.76;69.87
78343;BME280;67618;52.444;21.192;2023-03-16T00:31:20;100670.26;;;0.71;70.04
78343;BME280;67618;52.444;21.192;2023-03-16T00:36:21;100677.71;;;0.69;69.87
78343;BME280;67618;52.444;21.192;2023-03-16T00:41:22;100681.87;;;0.53;70.46
78343;BME280;67618;52.444;21.192;2023-03-16T00:46:24;100678.30;;;0.41;70.73
78343;BME280;67618;52.444;21.192;2023-03-16T00:51:27;100682.27;;;0.34;70.84
78343;BME280;67618;52.444;21.192;2023-03-16T00:56:29;100685.86;;;0.30;70.81
78343;BME280;67618;52.444;21.192;2023-03-16T01:01:31;100683.91;;;0.32;70.85
78343;BME280;67618;52.444;21.192;2023-03-16T01:06:33;100677.02;;;0.31;70.84
78343;BME280;67618;52.444;21.192;2023-03-16T01:11:34;100680.66;;;0.28;70.94
78343;BME280;67618;52.444;21.192;2023-03-16T01:16:36;100679.98;;;0.24;70.97
78343;BME280;67618;52.444;21.192;2023-03-16T01:21:39;100685.64;;;0.20;71.03
78343;BME280;67618;52.444;21.192;2023-03-16T01:26:40;100689.77;;;0.17;71.01
78343;BME280;67618;52.444;21.192;2023-03-16T01:31:42;100693.79;;;0.18;70.60
78343;BME280;67618;52.444;21.192;2023-03-16T01:36:46;100694.11;;;0.17;70.51
78343;BME280;67618;52.444;21.192;2023-03-16T01:41:48;100690.69;;;0.14;70.30
78343;BME280;67618;52.444;21.192;2023-03-16T01:46:49;100693.94;;;0.10;70.30
78343;BME280;67618;52.444;21.192;2023-03-16T01:52:03;100697.29;;;0.03;70.17
78343;BME280;67618;52.444;21.192;2023-03-16T01:57:34;100707.44;;;-0.04;70.21
78343;BME280;67618;52.444;21.192;2023-03-16T02:02:39;100705.90;;;-0.08;70.22
78343;BME280;67618;52.444;21.192;2023-03-16T02:07:47;100703.67;;;-0.12;70.20
78343;BME280;67618;52.444;21.192;2023-03-16T02:12:49;100702.40;;;-0.17;70.30
78343;BME280;67618;52.444;21.192;2023-03-16T02:17:51;100708.82;;;-0.23;70.45
78343;BME280;67618;52.444;21.192;2023-03-16T02:22:53;100711.20;;;-0.28;70.75
78343;BME280;67618;52.444;21.192;2023-03-16T02:28:15;100717.88;;;-0.28;70.49
78343;BME280;67618;52.444;21.192;2023-03-16T02:33:20;100722.62;;;-0.37;70.45
78343;BME280;67618;52.444;21.192;2023-03-16T02:38:22;100723.73;;;-0.50;70.75
78343;BME280;67618;52.444;21.192;2023-03-16T02:43:27;100729.89;;;-0.62;71.31
78343;BME280;67618;52.444;21.192;2023-03-16T02:48:50;100731.90;;;-0.74;72.14
78343;BME280;67618;52.444;21.192;2023-03-16T02:53:53;100733.71;;;-0.79;72.68
78343;BME280;67618;52.444;21.192;2023-03-16T02:58:54;100736.20;;;-0.81;72.77
78343;BME280;67618;52.444;21.192;2023-03-16T03:03:58;100737.02;;;-0.81;72.41
78343;BME280;67618;52.444;21.192;2023-03-16T03:09:00;100751.73;;;-0.82;72.38
78343;BME280;67618;52.444;21.192;2023-03-16T03:14:03;100755.69;;;-0.78;72.29
78343;BME280;67618;52.444;21.192;2023-03-16T03:19:04;100761.06;;;-0.77;72.00
78343;BME280;67618;52.444;21.192;2023-03-16T03:24:07;100772.64;;;-0.78;71.77
78343;BME280;67618;52.444;21.192;2023-03-16T03:29:08;100778.33;;;-0.81;71.85
78343;BME280;67618;52.444;21.192;2023-03-16T03:34:10;100779.74;;;-0.80;71.78
78343;BME280;67618;52.444;21.192;2023-03-16T03:39:12;100782.70;;;-0.79;71.59
78343;BME280;67618;52.444;21.192;2023-03-16T03:44:13;100787.45;;;-0.84;71.46
78343;BME280;67618;52.444;21.192;2023-03-16T03:49:15;100793.06;;;-0.88;71.56
78343;BME280;67618;52.444;21.192;2023-03-16T03:54:16;100795.18;;;-0.97;71.89
78343;BME280;67618;52.444;21.192;2023-03-16T03:59:17;100800.63;;;-1.02;72.18
78343;BME280;67618;52.444;21.192;2023-03-16T04:04:19;100803.52;;;-0.99;72.32
78343;BME280;67618;52.444;21.192;2023-03-16T04:09:21;100811.84;;;-0.97;72.40
78343;BME280;67618;52.444;21.192;2023-03-16T04:14:22;100811.66;;;-1.00;72.63
78343;BME280;67618;52.444;21.192;2023-03-16T04:19:24;100813.25;;;-1.06;72.96
78343;BME280;67618;52.444;21.192;2023-03-16T04:24:26;100810.64;;;-1.14;73.45
78343;BME280;67618;52.444;21.192;2023-03-16T04:29:27;100813.44;;;-1.16;73.57
78343;BME280;67618;52.444;21.192;2023-03-16T04:34:29;100816.36;;;-1.20;73.69
78343;BME280;67618;52.444;21.192;2023-03-16T04:39:31;100812.33;;;-1.29;73.86
78343;BME280;67618;52.444;21.192;2023-03-16T04:44:33;100820.34;;;-1.36;74.23
78343;BME280;67618;52.444;21.192;2023-03-16T04:49:34;100824.09;;;-1.39;74.52
78343;BME280;67618;52.444;21.192;2023-03-16T04:54:36;100824.64;;;-1.32;74.63
78343;BME280;67618;52.444;21.192;2023-03-16T04:59:37;100835.90;;;-1.23;74.57
78343;BME280;67618;52.444;21.192;2023-03-16T05:04:39;100842.06;;;-1.17;74.15
78343;BME280;67618;52.444;21.192;2023-03-16T05:09:40;100848.20;;;-1.14;73.84
78343;BME280;67618;52.444;21.192;2023-03-16T05:14:42;100846.08;;;-1.08;73.48
78343;BME280;67618;52.444;21.192;2023-03-16T05:19:43;100857.91;;;-1.04;73.23
78343;BME280;67618;52.444;21.192;2023-03-16T05:24:45;100857.44;;;-1.17;73.87
78343;BME280;67618;52.444;21.192;2023-03-16T05:29:47;100867.05;;;-1.27;74.58
78343;BME280;67618;52.444;21.192;2023-03-16T05:34:48;100873.77;;;-1.36;75.03
78343;BME280;67618;52.444;21.192;2023-03-16T05:39:49;100878.20;;;-1.33;75.59
78343;BME280;67618;52.444;21.192;2023-03-16T05:44:52;100873.86;;;-1.34;76.21
78343;BME280;67618;52.444;21.192;2023-03-16T05:49:54;100878.55;;;-1.36;76.60
78343;BME280;67618;52.444;21.192;2023-03-16T05:54:55;100884.16;;;-1.30;76.86
78343;BME280;67618;52.444;21.192;2023-03-16T05:59:57;100881.71;;;-1.21;76.95
78343;BME280;67618;52.444;21.192;2023-03-16T06:04:58;100884.86;;;-1.10;76.99
78343;BME280;67618;52.444;21.192;2023-03-16T06:10:00;100885.47;;;-1.04;77.10
78343;BME280;67618;52.444;21.192;2023-03-16T06:15:02;100890.52;;;-0.93;77.13
78343;BME280;67618;52.444;21.192;2023-03-16T06:20:11;100897.90;;;-0.82;77.28
78343;BME280;67618;52.444;21.192;2023-03-16T06:25:14;100904.94;;;-0.75;77.46
78343;BME280;67618;52.444;21.192;2023-03-16T06:30:16;100908.21;;;-0.67;77.49
78343;BME280;67618;52.444;21.192;2023-03-16T06:35:18;100910.59;;;-0.54;77.42
78343;BME280;67618;52.444;21.192;2023-03-16T06:40:20;100912.17;;;-0.32;77.35
78343;BME280;67618;52.444;21.192;2023-03-16T06:45:22;100919.83;;;-0.12;77.10
78343;BME280;67618;52.444;21.192;2023-03-16T06:50:26;100924.33;;;0.04;76.96
78343;BME280;67618;52.444;21.192;2023-03-16T06:55:28;100925.45;;;0.21;76.65
78343;BME280;67618;52.444;21.192;2023-03-16T07:00:30;100923.78;;;0.37;76.38
78343;BME280;67618;52.444;21.192;2023-03-16T07:05:31;100930.27;;;0.51;76.42
78343;BME280;67618;52.444;21.192;2023-03-16T07:10:33;100929.19;;;0.61;76.19
78343;BME280;67618;52.444;21.192;2023-03-16T07:15:52;100933.08;;;0.79;76.20
78343;BME280;67618;52.444;21.192;2023-03-16T07:20:54;100937.50;;;0.98;76.28
78343;BME280;67618;52.444;21.192;2023-03-16T07:25:55;100941.10;;;1.14;75.95
78343;BME280;67618;52.444;21.192;2023-03-16T07:30:57;100941.42;;;1.29;75.93
78343;BME280;67618;52.444;21.192;2023-03-16T07:35:59;100938.55;;;1.47;75.78
78343;BME280;67618;52.444;21.192;2023-03-16T07:41:04;100942.30;;;1.63;75.30
78343;BME280;67618;52.444;21.192;2023-03-16T07:46:24;100943.75;;;1.82;75.00
78343;BME280;67618;52.444;21.192;2023-03-16T07:51:43;100941.69;;;1.99;74.88
78343;BME280;67618;52.444;21.192;2023-03-16T07:56:44;100946.39;;;2.14;74.38
78343;BME280;67618;52.444;21.192;2023-03-16T08:02:03;100942.14;;;2.33;74.06
78343;BME280;67618;52.444;21.192;2023-03-16T08:07:05;100939.83;;;2.50;73.42
78343;BME280;67618;52.444;21.192;2023-03-16T08:12:07;100947.43;;;2.64;72.81
78343;BME280;67618;52.444;21.192;2023-03-16T08:17:11;100954.44;;;2.76;72.11
78343;BME280;67618;52.444;21.192;2023-03-16T08:22:12;100956.02;;;2.86;71.35
78343;BME280;67618;52.444;21.192;2023-03-16T08:27:14;100956.86;;;2.96;71.25
78343;BME280;67618;52.444;21.192;2023-03-16T08:32:16;100957.88;;;3.10;70.78
78343;BME280;67618;52.444;21.192;2023-03-16T08:37:18;100961.25;;;3.27;70.03
78343;BME280;67618;52.444;21.192;2023-03-16T08:42:37;100964.67;;;3.41;69.71
78343;BME280;67618;52.444;21.192;2023-03-16T08:47:40;100965.17;;;3.51;68.26
78343;BME280;67618;52.444;21.192;2023-03-16T08:52:41;100968.48;;;3.57;68.43
78343;BME280;67618;52.444;21.192;2023-03-16T08:57:43;100971.06;;;3.67;68.54
78343;BME280;67618;52.444;21.192;2023-03-16T09:02:46;100967.33;;;3.85;68.37
78343;BME280;67618;52.444;21.192;2023-03-16T09:07:50;100972.00;;;4.13;68.42
78343;BME280;67618;52.444;21.192;2023-03-16T09:12:52;100983.52;;;4.44;68.00
78343;BME280;67618;52.444;21.192;2023-03-16T09:17:54;100978.77;;;4.65;66.13
78343;BME280;67618;52.444;21.192;2023-03-16T09:22:57;100973.73;;;4.76;65.45
78343;BME280;67618;52.444;21.192;2023-03-16T09:28:16;100973.05;;;4.95;65.07
78343;BME280;67618;52.444;21.192;2023-03-16T09:33:18;100979.85;;;5.08;63.44
78343;BME280;67618;52.444;21.192;2023-03-16T09:38:20;100974.74;;;5.31;64.26
78343;BME280;67618;52.444;21.192;2023-03-16T09:49:42;100977.77;;;5.67;60.83
78343;BME280;67618;52.444;21.192;2023-03-16T09:55:06;100984.85;;;5.60;61.04
78343;BME280;67618;52.444;21.192;2023-03-16T10:05:20;100988.31;;;5.40;60.25
78343;BME280;67618;52.444;21.192;2023-03-16T10:16:26;100994.66;;;5.44;60.35
78343;BME280;67618;52.444;21.192;2023-03-16T10:21:35;100993.18;;;5.41;60.00
78343;BME280;67618;52.444;21.192;2023-03-16T10:26:41;100994.89;;;5.34;60.21
78343;BME280;67618;52.444;21.192;2023-03-16T10:31:45;100996.61;;;5.33;59.24
78343;BME280;67618;52.444;21.192;2023-03-16T10:37:08;100999.15;;;5.25;58.42
78343;BME280;67618;52.444;21.192;2023-03-16T10:42:18;101003.73;;;5.14;57.99
78343;BME280;67618;52.444;21.192;2023-03-16T10:47:28;101002.73;;;5.09;58.09
78343;BME280;67618;52.444;21.192;2023-03-16T10:52:39;100997.70;;;5.16;57.91
78343;BME280;67618;52.444;21.192;2023-03-16T10:57:49;100996.31;;;5.35;56.45
78343;BME280;67618;52.444;21.192;2023-03-16T11:02:53;100995.34;;;5.57;54.22
78343;BME280;67618;52.444;21.192;2023-03-16T11:07:59;100995.36;;;5.78;52.49
78343;BME280;67618;52.444;21.192;2023-03-16T11:13:16;101000.80;;;5.86;52.77
78343;BME280;67618;52.444;21.192;2023-03-16T11:18:40;101000.52;;;5.89;53.22
78343;BME280;67618;52.444;21.192;2023-03-16T11:23:48;100998.06;;;5.88;53.02
78343;BME280;67618;52.444;21.192;2023-03-16T11:29:13;100994.98;;;5.89;52.58
78343;BME280;67618;52.444;21.192;2023-03-16T11:34:27;100992.45;;;5.99;52.02
78343;BME280;67618;52.444;21.192;2023-03-16T11:45:07;100991.04;;;6.12;50.10
78343;BME280;67618;52.444;21.192;2023-03-16T11:50:27;100989.09;;;6.18;51.00
78343;BME280;67618;52.444;21.192;2023-03-16T11:55:49;100983.60;;;6.20;49.68
78343;BME280;67618;52.444;21.192;2023-03-16T12:01:17;100985.20;;;6.15;48.66
78343;BME280;67618;52.444;21.192;2023-03-16T12:22:31;101004.14;;;5.88;51.39
78343;BME280;67618;52.444;21.192;2023-03-16T12:27:37;101011.05;;;5.82;51.52
78343;BME280;67618;52.444;21.192;2023-03-16T12:32:48;101014.70;;;5.75;52.72
78343;BME280;67618;52.444;21.192;2023-03-16T12:43:32;101018.03;;;5.64;54.53
78343;BME280;67618;52.444;21.192;2023-03-16T12:48:45;101022.33;;;5.63;55.98
78343;BME280;67618;52.444;21.192;2023-03-16T12:58:55;101031.36;;;5.57;58.08
78343;BME280;67618;52.444;21.192;2023-03-16T13:04:10;101034.33;;;5.58;58.89
78343;BME280;67618;52.444;21.192;2023-03-16T13:09:18;101029.77;;;5.49;59.89
78343;BME280;67618;52.444;21.192;2023-03-16T13:14:42;101032.80;;;5.40;60.52
78343;BME280;67618;52.444;21.192;2023-03-16T13:20:01;101035.30;;;5.37;60.93
78343;BME280;67618;52.444;21.192;2023-03-16T13:30:30;101037.60;;;5.32;60.72
78343;BME280;67618;52.444;21.192;2023-03-16T13:35:32;101041.66;;;5.28;61.02
78343;BME280;67618;52.444;21.192;2023-03-16T13:40:34;101039.09;;;5.23;61.77
78343;BME280;67618;52.444;21.192;2023-03-16T13:45:38;101039.53;;;5.20;62.39
78343;BME280;67618;52.444;21.192;2023-03-16T13:50:40;101043.95;;;5.24;62.52
78343;BME280;67618;52.444;21.192;2023-03-16T13:55:45;101047.52;;;5.34;60.34
78343;BME280;67618;52.444;21.192;2023-03-16T14:00:48;101046.55;;;5.43;59.20
78343;BME280;67618;52.444;21.192;2023-03-16T14:05:49;101046.33;;;5.47;57.79
78343;BME280;67618;52.444;21.192;2023-03-16T14:10:53;101046.92;;;5.44;57.74
78343;BME280;67618;52.444;21.192;2023-03-16T14:16:00;101044.52;;;5.44;58.39
78343;BME280;67618;52.444;21.192;2023-03-16T14:21:08;101046.90;;;5.49;57.87
78343;BME280;67618;52.444;21.192;2023-03-16T14:26:13;101039.69;;;5.51;58.47
78343;BME280;67618;52.444;21.192;2023-03-16T14:31:18;101038.83;;;5.58;58.35
78343;BME280;67618;52.444;21.192;2023-03-16T14:36:20;101036.91;;;5.64;58.01
78343;BME280;67618;52.444;21.192;2023-03-16T14:41:26;101039.10;;;5.68;57.54
78343;BME280;67618;52.444;21.192;2023-03-16T14:46:37;101045.61;;;5.72;57.20
78343;BME280;67618;52.444;21.192;2023-03-16T14:51:40;101044.58;;;5.72;56.64
78343;BME280;67618;52.444;21.192;2023-03-16T14:56:46;101045.38;;;5.70;56.30
78343;BME280;67618;52.444;21.192;2023-03-16T15:01:49;101047.06;;;5.68;55.99
78343;BME280;67618;52.444;21.192;2023-03-16T15:06:52;101049.24;;;5.65;55.27
78343;BME280;67618;52.444;21.192;2023-03-16T15:11:54;101057.83;;;5.63;55.28
78343;BME280;67618;52.444;21.192;2023-03-16T15:16:57;101058.53;;;5.63;55.62
78343;BME280;67618;52.444;21.192;2023-03-16T15:22:00;101060.84;;;5.66;55.93
78343;BME280;67618;52.444;21.192;2023-03-16T15:27:14;101066.50;;;5.69;56.02
78343;BME280;67618;52.444;21.192;2023-03-16T15:32:18;101077.81;;;5.72;56.44
78343;BME280;67618;52.444;21.192;2023-03-16T15:37:19;101084.88;;;5.64;57.12
78343;BME280;67618;52.444;21.192;2023-03-16T15:42:23;101080.90;;;5.52;57.49
78343;BME280;67618;52.444;21.192;2023-03-16T15:47:26;101085.18;;;5.44;58.08
78343;BME280;67618;52.444;21.192;2023-03-16T15:52:33;101086.96;;;5.39;58.32
78343;BME280;67618;52.444;21.192;2023-03-16T15:57:36;101094.66;;;5.36;58.19
78343;BME280;67618;52.444;21.192;2023-03-16T16:02:38;101098.99;;;5.30;58.13
78343;BME280;67618;52.444;21.192;2023-03-16T16:07:39;101102.23;;;5.29;58.54
78343;BME280;67618;52.444;21.192;2023-03-16T16:12:42;101107.59;;;5.28;58.22
78343;BME280;67618;52.444;21.192;2023-03-16T16:17:52;101111.13;;;5.25;58.49
78343;BME280;67618;52.444;21.192;2023-03-16T16:22:55;101121.45;;;5.23;58.81
78343;BME280;67618;52.444;21.192;2023-03-16T16:28:18;101124.55;;;5.22;59.04
78343;BME280;67618;52.444;21.192;2023-03-16T16:33:21;101131.29;;;5.22;58.96
78343;BME280;67618;52.444;21.192;2023-03-16T16:38:24;101136.61;;;5.15;58.84
78343;BME280;67618;52.444;21.192;2023-03-16T16:48:32;101141.04;;;5.01;59.63
78343;BME280;67618;52.444;21.192;2023-03-16T16:53:36;101140.58;;;4.97;60.38
78343;BME280;67618;52.444;21.192;2023-03-16T16:58:38;101144.92;;;4.92;60.28
78343;BME280;67618;52.444;21.192;2023-03-16T17:03:41;101151.39;;;4.83;60.39
78343;BME280;67618;52.444;21.192;2023-03-16T17:08:43;101153.29;;;4.72;60.91
78343;BME280;67618;52.444;21.192;2023-03-16T17:13:45;101162.27;;;4.61;60.82
78343;BME280;67618;52.444;21.192;2023-03-16T17:18:48;101160.21;;;4.46;61.24
78343;BME280;67618;52.444;21.192;2023-03-16T17:23:50;101163.19;;;4.31;61.37
78343;BME280;67618;52.444;21.192;2023-03-16T17:29:32;101168.21;;;4.16;61.61
78343;BME280;67618;52.444;21.192;2023-03-16T17:34:28;101175.23;;;3.90;62.05
78343;BME280;67618;52.444;21.192;2023-03-16T17:39:34;101176.48;;;3.72;62.59
78343;BME280;67618;52.444;21.192;2023-03-16T17:44:48;101178.59;;;3.68;62.94
78343;BME280;67618;52.444;21.192;2023-03-16T17:49:51;101183.89;;;3.62;63.00
78343;BME280;67618;52.444;21.192;2023-03-16T17:54:53;101190.67;;;3.54;63.34
78343;BME280;67618;52.444;21.192;2023-03-16T17:59:54;101192.58;;;3.45;63.65
78343;BME280;67618;52.444;21.192;2023-03-16T18:04:56;101196.02;;;3.36;63.88
78343;BME280;67618;52.444;21.192;2023-03-16T18:09:59;101199.65;;;3.27;64.07
78343;BME280;67618;52.444;21.192;2023-03-16T18:15:01;101204.16;;;3.19;64.12
78343;BME280;67618;52.444;21.192;2023-03-16T18:20:04;101207.24;;;3.09;64.20
78343;BME280;67618;52.444;21.192;2023-03-16T18:25:27;101209.64;;;3.00;64.66
78343;BME280;67618;52.444;21.192;2023-03-16T18:30:31;101208.90;;;2.90;64.87
78343;BME280;67618;52.444;21.192;2023-03-16T18:35:33;101211.81;;;2.85;64.90
78343;BME280;67618;52.444;21.192;2023-03-16T18:40:34;101220.88;;;2.84;65.29
78343;BME280;67618;52.444;21.192;2023-03-16T18:45:37;101225.02;;;2.76;65.35
78343;BME280;67618;52.444;21.192;2023-03-16T18:50:39;101230.43;;;2.69;65.60
78343;BME280;67618;52.444;21.192;2023-03-16T18:55:44;101233.89;;;2.61;65.66
78343;BME280;67618;52.444;21.192;2023-03-16T19:00:51;101234.27;;;2.49;65.89
78343;BME280;67618;52.444;21.192;2023-03-16T19:05:55;101239.54;;;2.31;66.02
78343;BME280;67618;52.444;21.192;2023-03-16T19:10:59;101244.31;;;2.18;66.33
78343;BME280;67618;52.444;21.192;2023-03-16T19:16:01;101246.80;;;2.08;66.40
78343;BME280;67618;52.444;21.192;2023-03-16T19:21:04;101255.80;;;2.05;66.77
78343;BME280;67618;52.444;21.192;2023-03-16T19:26:05;101260.43;;;2.01;66.63
78343;BME280;67618;52.444;21.192;2023-03-16T19:31:15;101262.58;;;1.95;66.77
78343;BME280;67618;52.444;21.192;2023-03-16T19:36:23;101265.84;;;1.87;67.04
78343;BME280;67618;52.444;21.192;2023-03-16T19:41:28;101271.73;;;1.76;67.07
78343;BME280;67618;52.444;21.192;2023-03-16T19:46:30;101281.16;;;1.61;67.48
78343;BME280;67618;52.444;21.192;2023-03-16T19:51:32;101281.55;;;1.47;67.77
78343;BME280;67618;52.444;21.192;2023-03-16T19:56:33;101284.39;;;1.42;68.10
78343;BME280;67618;52.444;21.192;2023-03-16T20:01:35;101284.84;;;1.37;68.07
78343;BME280;67618;52.444;21.192;2023-03-16T20:06:36;101285.11;;;1.32;68.41
78343;BME280;67618;52.444;21.192;2023-03-16T20:11:38;101280.58;;;1.23;68.66
78343;BME280;67618;52.444;21.192;2023-03-16T20:16:39;101292.18;;;1.18;68.94
78343;BME280;67618;52.444;21.192;2023-03-16T20:21:41;101295.58;;;1.13;69.02
78343;BME280;67618;52.444;21.192;2023-03-16T20:26:44;101291.70;;;1.15;68.84
78343;BME280;67618;52.444;21.192;2023-03-16T20:31:46;101289.64;;;1.15;68.60
78343;BME280;67618;52.444;21.192;2023-03-16T20:36:48;101289.20;;;1.10;68.62
78343;BME280;67618;52.444;21.192;2023-03-16T20:41:50;101291.41;;;1.01;68.85
78343;BME280;67618;52.444;21.192;2023-03-16T20:46:51;101293.42;;;0.94;69.00
78343;BME280;67618;52.444;21.192;2023-03-16T20:51:53;101289.17;;;0.87;69.05
78343;BME280;67618;52.444;21.192;2023-03-16T20:56:54;101295.86;;;0.80;69.21
78343;BME280;67618;52.444;21.192;2023-03-16T21:01:56;101298.59;;;0.77;69.75
78343;BME280;67618;52.444;21.192;2023-03-16T21:06:57;101301.88;;;0.77;69.82
78343;BME280;67618;52.444;21.192;2023-03-16T21:11:59;101304.04;;;0.76;69.47
78343;BME280;67618;52.444;21.192;2023-03-16T21:17:00;101299.90;;;0.72;69.99
78343;BME280;67618;52.444;21.192;2023-03-16T21:22:13;101309.09;;;0.63;70.66
78343;BME280;67618;52.444;21.192;2023-03-16T21:27:26;101313.28;;;0.65;70.41
78343;BME280;67618;52.444;21.192;2023-03-16T21:32:29;101314.81;;;0.68;70.20
78343;BME280;67618;52.444;21.192;2023-03-16T21:37:31;101310.91;;;0.65;70.10
78343;BME280;67618;52.444;21.192;2023-03-16T21:42:32;101306.05;;;0.61;70.04
78343;BME280;67618;52.444;21.192;2023-03-16T21:47:34;101307.35;;;0.56;69.97
78343;BME280;67618;52.444;21.192;2023-03-16T21:52:36;101301.70;;;0.50;69.73
78343;BME280;67618;52.444;21.192;2023-03-16T21:57:37;101311.73;;;0.48;69.67
78343;BME280;67618;52.444;21.192;2023-03-16T22:02:39;101312.09;;;0.41;70.11
78343;BME280;67618;52.444;21.192;2023-03-16T22:07:41;101308.50;;;0.35;69.95
78343;BME280;67618;52.444;21.192;2023-03-16T22:12:42;101306.93;;;0.31;70.04
78343;BME280;67618;52.444;21.192;2023-03-16T22:17:44;101306.94;;;0.25;70.10
78343;BME280;67618;52.444;21.192;2023-03-16T22:22:47;101311.80;;;0.20;70.60
78343;BME280;67618;52.444;21.192;2023-03-16T22:27:50;101321.08;;;0.20;70.70
78343;BME280;67618;52.444;21.192;2023-03-16T22:32:55;101317.55;;;0.18;70.37
78343;BME280;67618;52.444;21.192;2023-03-16T22:37:59;101319.41;;;0.14;70.34
78343;BME280;67618;52.444;21.192;2023-03-16T22:43:10;101314.98;;;0.12;70.41
78343;BME280;67618;52.444;21.192;2023-03-16T22:48:18;101319.86;;;0.07;70.17
78343;BME280;67618;52.444;21.192;2023-03-16T22:53:36;101320.36;;;-0.01;69.86
78343;BME280;67618;52.444;21.192;2023-03-16T22:59:14;101329.11;;;-0.04;69.92
78343;BME280;67618;52.444;21.192;2023-03-16T23:04:17;101336.79;;;-0.08;70.01
78343;BME280;67618;52.444;21.192;2023-03-16T23:09:20;101337.29;;;-0.14;70.03
78343;BME280;67618;52.444;21.192;2023-03-16T23:14:24;101334.16;;;-0.22;69.91
78343;BME280;67618;52.444;21.192;2023-03-16T23:19:32;101339.73;;;-0.35;70.02
78343;BME280;67618;52.444;21.192;2023-03-16T23:24:34;101338.69;;;-0.45;70.20
78343;BME280;67618;52.444;21.192;2023-03-16T23:29:36;101341.41;;;-0.43;70.36
78343;BME280;67618;52.444;21.192;2023-03-16T23:34:37;101342.11;;;-0.42;70.49
78343;BME280;67618;52.444;21.192;2023-03-16T23:39:39;101350.62;;;-0.46;70.62
78343;BME280;67618;52.444;21.192;2023-03-16T23:44:41;101357.14;;;-0.49;70.67
78343;BME280;67618;52.444;21.192;2023-03-16T23:49:43;101366.21;;;-0.53;70.52
78343;BME280;67618;52.444;21.192;2023-03-16T23:54:44;101367.06;;;-0.59;70.37
78343;BME280;67618;52.444;21.192;2023-03-16T23:59:46;101367.30;;;-0.58;70.50
